createdAt,value
2023-05-06T00:03:02.148Z,6.60
2023-05-06T00:08:05.148Z,6.00
2023-05-06T00:13:08.232Z,6.53
2023-05-06T00:18:10.568Z,7.10
2023-05-06T00:23:12.843Z,7.43
2023-05-06T00:28:15.732Z,9.43
2023-05-06T00:33:18.005Z,7.60
2023-05-06T00:38:20.147Z,8.27
2023-05-06T00:43:22.524Z,8.13
2023-05-06T00:48:25.309Z,9.97
2023-05-06T00:53:27.619Z,9.80
2023-05-06T00:58:30.016Z,7.70
2023-05-06T01:03:32.523Z,8.10
2023-05-06T01:09:22.730Z,7.23
2023-05-06T01:14:47.240Z,7.20
2023-05-06T01:19:53.485Z,8.57
2023-05-06T01:24:55.792Z,9.13
2023-05-06T01:29:59.906Z,9.87
2023-05-06T01:35:24.079Z,10.17
2023-05-06T01:40:30.305Z,10.77
2023-05-06T01:45:36.043Z,7.50
2023-05-06T01:50:39.671Z,5.33
2023-05-06T01:55:41.909Z,5.40
2023-05-06T02:00:44.122Z,5.73
2023-05-06T02:05:47.514Z,6.43
2023-05-06T02:10:50.220Z,6.60
2023-05-06T02:15:54.840Z,5.17
2023-05-06T02:20:58.112Z,5.70
2023-05-06T02:26:00.402Z,4.40
2023-05-06T02:31:02.647Z,5.13
2023-05-06T02:36:05.271Z,5.03
2023-05-06T02:41:07.535Z,5.37
2023-05-06T02:47:31.011Z,7.80
2023-05-06T02:52:36.132Z,9.23
2023-05-06T02:57:38.574Z,9.40
2023-05-06T03:02:40.913Z,11.60
2023-05-06T03:07:43.255Z,6.07
2023-05-06T03:12:45.581Z,6.50
2023-05-06T03:17:48.254Z,6.53
2023-05-06T03:22:51.822Z,8.60
2023-05-06T03:27:55.383Z,5.80
2023-05-06T03:33:02.178Z,6.13
2023-05-06T03:38:07.464Z,7.27
2023-05-06T03:43:17.522Z,7.23
2023-05-06T03:48:22.686Z,7.90
2023-05-06T03:53:25.313Z,8.00
2023-05-06T03:58:28.518Z,7.17
2023-05-06T04:03:31.349Z,9.83
2023-05-06T04:08:34.671Z,7.77
2023-05-06T04:13:37.746Z,11.13
2023-05-06T04:18:46.268Z,10.23
2023-05-06T04:23:51.092Z,11.27
2023-05-06T04:28:57.603Z,8.87
2023-05-06T04:34:00.180Z,11.50
2023-05-06T04:39:03.356Z,10.53
2023-05-06T04:44:06.080Z,11.43
2023-05-06T04:49:08.955Z,11.70
2023-05-06T04:54:12.156Z,14.93
2023-05-06T04:59:16.173Z,11.30
2023-05-06T05:04:20.103Z,10.80
2023-05-06T05:09:23.209Z,12.63
2023-05-06T05:14:25.952Z,18.17
2023-05-06T05:19:28.435Z,16.63
2023-05-06T05:24:31.647Z,24.27
2023-05-06T05:29:33.966Z,20.60
2023-05-06T05:34:38.817Z,26.50
2023-05-06T05:39:41.699Z,24.57
2023-05-06T05:44:45.828Z,16.67
2023-05-06T05:49:48.190Z,16.63
2023-05-06T05:54:51.598Z,21.50
2023-05-06T05:59:54.193Z,17.90
2023-05-06T06:04:56.665Z,16.90
2023-05-06T06:09:59.071Z,12.00
2023-05-06T06:15:01.457Z,15.40
2023-05-06T06:20:05.187Z,16.07
2023-05-06T06:25:08.677Z,19.07
2023-05-06T06:30:11.705Z,21.47
2023-05-06T06:35:15.337Z,23.43
2023-05-06T06:40:17.816Z,33.30
2023-05-06T06:45:20.064Z,27.23
2023-05-06T06:50:22.300Z,30.27
2023-05-06T06:55:31.258Z,30.23
2023-05-06T07:00:33.525Z,25.70
2023-05-06T07:05:35.829Z,29.67
2023-05-06T07:10:38.938Z,31.73
2023-05-06T07:15:41.177Z,27.03
2023-05-06T07:20:43.390Z,27.73
2023-05-06T07:25:45.665Z,27.23
2023-05-06T07:30:51.389Z,23.83
2023-05-06T07:35:54.996Z,28.03
2023-05-06T07:40:57.818Z,31.00
2023-05-06T07:46:03.404Z,23.50
2023-05-06T07:51:05.804Z,24.13
2023-05-06T07:56:08.027Z,23.90
2023-05-06T08:01:10.431Z,22.50
2023-05-06T08:06:12.622Z,19.50
2023-05-06T08:11:15.031Z,20.67
2023-05-06T08:16:17.964Z,18.07
2023-05-06T08:21:20.119Z,18.20
2023-05-06T08:26:22.223Z,17.53
2023-05-06T08:31:24.519Z,17.20
2023-05-06T08:36:27.492Z,15.97
2023-05-06T08:41:31.111Z,17.33
2023-05-06T08:46:33.547Z,15.40
2023-05-06T08:51:36.111Z,13.53
2023-05-06T08:56:43.468Z,14.27
2023-05-06T09:01:45.758Z,13.00
2023-05-06T09:06:48.117Z,11.13
2023-05-06T09:11:54.214Z,8.53
2023-05-06T09:16:56.468Z,8.83
2023-05-06T09:21:59.548Z,12.13
2023-05-06T09:27:02.071Z,11.27
2023-05-06T09:32:10.343Z,8.87
2023-05-06T09:37:12.854Z,10.97
2023-05-06T09:42:16.128Z,8.00
2023-05-06T09:47:18.667Z,8.83
2023-05-06T09:52:22.089Z,8.93
2023-05-06T09:57:24.821Z,7.63
2023-05-06T10:02:27.600Z,7.80
2023-05-06T10:07:30.744Z,6.00
2023-05-06T10:12:34.657Z,6.40
2023-05-06T10:17:40.814Z,5.73
2023-05-06T10:22:45.936Z,4.87
2023-05-06T10:27:48.905Z,6.57
2023-05-06T10:32:55.852Z,6.20
2023-05-06T10:37:59.436Z,5.90
2023-05-06T10:43:43.795Z,5.37
2023-05-06T10:49:13.932Z,5.57
2023-05-06T10:54:19.195Z,5.57
2023-05-06T10:59:23.996Z,5.00
2023-05-06T11:04:26.324Z,5.17
2023-05-06T11:09:28.522Z,5.73
2023-05-06T11:14:35.426Z,5.50
2023-05-06T11:19:39.086Z,7.83
2023-05-06T11:24:43.592Z,3.43
2023-05-06T11:29:45.892Z,3.50
2023-05-06T11:34:48.122Z,2.97
2023-05-06T11:39:50.507Z,2.90
2023-05-06T11:44:55.540Z,4.73
2023-05-06T11:49:58.994Z,3.27
2023-05-06T11:55:01.149Z,3.43
2023-05-06T12:00:05.241Z,2.40
2023-05-06T12:05:14.107Z,4.93
2023-05-06T12:10:17.319Z,3.30
2023-05-06T12:15:19.523Z,4.00
2023-05-06T12:20:22.977Z,2.50
2023-05-06T12:25:25.070Z,3.20
2023-05-06T12:30:32.167Z,1.80
2023-05-06T12:35:34.549Z,2.80
2023-05-06T12:40:37.623Z,3.50
2023-05-06T12:45:40.225Z,2.17
2023-05-06T12:50:45.130Z,2.90
2023-05-06T12:55:47.436Z,3.50
2023-05-06T13:00:49.599Z,4.77
2023-05-06T13:05:52.043Z,2.70
2023-05-06T13:10:54.387Z,2.33
2023-05-06T13:15:57.128Z,2.17
2023-05-06T13:21:00.421Z,3.30
2023-05-06T13:26:06.212Z,2.10
2023-05-06T13:31:09.028Z,2.27
2023-05-06T13:36:11.251Z,2.10
2023-05-06T13:41:13.553Z,2.00
2023-05-06T13:46:15.887Z,2.93
2023-05-06T13:51:18.237Z,2.63
2023-05-06T13:56:21.597Z,1.90
2023-05-06T14:01:25.035Z,3.20
2023-05-06T14:06:27.754Z,2.40
2023-05-06T14:11:30.201Z,1.80
2023-05-06T14:16:32.808Z,2.50
2023-05-06T14:21:35.164Z,2.47
2023-05-06T14:26:37.530Z,2.93
2023-05-06T14:31:40.047Z,2.20
2023-05-06T14:36:42.454Z,2.90
2023-05-06T14:41:44.914Z,2.07
2023-05-06T14:46:47.195Z,2.50
2023-05-06T14:51:49.924Z,3.83
2023-05-06T14:56:52.312Z,3.20
2023-05-06T15:01:56.447Z,3.03
2023-05-06T15:06:58.721Z,5.57
2023-05-06T15:12:01.570Z,2.50
2023-05-06T15:17:03.915Z,2.70
2023-05-06T15:22:06.336Z,2.20
2023-05-06T15:27:08.477Z,3.80
2023-05-06T15:32:10.800Z,2.00
2023-05-06T15:37:15.823Z,2.67
2023-05-06T15:42:18.028Z,2.33
2023-05-06T15:47:20.615Z,2.73
2023-05-06T15:52:23.639Z,2.20
2023-05-06T15:57:25.877Z,1.87
2023-05-06T16:02:28.720Z,3.10
2023-05-06T16:07:30.977Z,2.57
2023-05-06T16:12:33.194Z,2.80
2023-05-06T16:17:37.685Z,2.73
2023-05-06T16:22:40.851Z,2.30
2023-05-06T16:27:43.116Z,3.50
2023-05-06T16:32:45.338Z,3.50
2023-05-06T16:37:47.481Z,39.00
2023-05-06T16:42:50.236Z,1.80
2023-05-06T16:47:52.511Z,12.23
2023-05-06T16:52:54.886Z,2.00
2023-05-06T16:57:57.261Z,5.50
2023-05-06T17:02:59.709Z,3.50
2023-05-06T17:08:03.677Z,2.90
2023-05-06T17:13:06.060Z,14.23
2023-05-06T17:18:08.464Z,69.93
2023-05-06T17:23:10.767Z,6.00
2023-05-06T17:28:13.048Z,3.87
2023-05-06T17:33:16.118Z,2.80
2023-05-06T17:38:18.590Z,3.10
2023-05-06T17:43:21.083Z,12.67
2023-05-06T17:48:23.563Z,2.30
2023-05-06T17:53:25.803Z,3.20
2023-05-06T17:58:28.284Z,4.50
2023-05-06T18:03:30.697Z,1.67
2023-05-06T18:08:33.098Z,1.77
2023-05-06T18:13:39.112Z,1.97
2023-05-06T18:18:42.312Z,3.10
2023-05-06T18:23:44.505Z,2.97
2023-05-06T18:28:46.818Z,2.63
2023-05-06T18:39:11.991Z,2.57
2023-05-06T18:44:14.374Z,3.17
2023-05-06T18:49:16.602Z,3.57
2023-05-06T18:54:18.718Z,2.17
2023-05-06T18:59:21.494Z,3.97
2023-05-06T19:04:24.550Z,4.07
2023-05-06T19:09:26.802Z,3.07
2023-05-06T19:14:29.075Z,3.87
2023-05-06T19:19:31.300Z,3.97
2023-05-06T19:24:33.480Z,6.13
2023-05-06T19:29:35.790Z,2.80
2023-05-06T19:34:38.126Z,2.53
2023-05-06T19:39:40.420Z,5.50
2023-05-06T19:44:42.714Z,3.83
2023-05-06T19:49:45.028Z,3.73
2023-05-06T19:54:47.194Z,4.27
2023-05-06T19:59:49.411Z,4.87
2023-05-06T20:04:51.520Z,3.77
2023-05-06T20:09:55.523Z,4.73
2023-05-06T20:14:57.712Z,3.70
2023-05-06T20:20:00.816Z,4.13
2023-05-06T20:25:14.453Z,6.73
2023-05-06T20:30:16.835Z,4.43
2023-05-06T20:35:19.256Z,6.30
2023-05-06T20:40:21.850Z,4.20
2023-05-06T20:45:24.152Z,3.77
2023-05-06T20:50:28.531Z,3.93
2023-05-06T20:55:30.829Z,3.40
2023-05-06T21:00:32.987Z,5.70
2023-05-06T21:05:35.349Z,4.67
2023-05-06T21:10:37.492Z,6.63
2023-05-06T21:15:39.672Z,4.90
2023-05-06T21:20:41.969Z,7.73
2023-05-06T21:25:44.159Z,6.33
2023-05-06T21:30:46.581Z,4.80
2023-05-06T21:35:48.874Z,5.70
2023-05-06T21:40:51.027Z,5.20
2023-05-06T21:45:53.234Z,4.80
2023-05-06T21:50:58.230Z,4.87
2023-05-06T21:56:00.456Z,7.80
2023-05-06T22:01:02.585Z,5.20
2023-05-06T22:06:05.761Z,5.10
2023-05-06T22:11:08.104Z,5.70
2023-05-06T22:16:10.331Z,4.60
2023-05-06T22:21:12.558Z,5.90
2023-05-06T22:26:14.709Z,5.40
2023-05-06T22:31:16.982Z,4.10
2023-05-06T22:36:19.663Z,4.30
2023-05-06T22:41:22.230Z,4.90
2023-05-06T22:46:24.512Z,6.60
2023-05-06T22:51:26.903Z,5.53
2023-05-06T22:56:29.038Z,4.83
2023-05-06T23:01:32.462Z,6.40
2023-05-06T23:06:34.921Z,5.20
2023-05-06T23:11:37.087Z,7.63
2023-05-06T23:16:39.289Z,6.00
2023-05-06T23:21:41.787Z,6.67
2023-05-06T23:26:43.933Z,7.90
2023-05-06T23:31:46.439Z,7.57
2023-05-06T23:36:48.586Z,5.00
2023-05-06T23:41:50.836Z,8.47
2023-05-06T23:46:53.096Z,7.47
2023-05-06T23:51:55.260Z,8.30
2023-05-06T23:56:58.144Z,5.83
